createdAt,value
2018-07-10T00:02:37.556Z,62.10
2018-07-10T00:06:30.687Z,62.40
2018-07-10T00:09:13.700Z,62.90
2018-07-10T00:11:43.446Z,63.20
2018-07-10T00:14:13.263Z,63.00
2018-07-10T00:16:42.980Z,63.70
2018-07-10T00:19:12.743Z,63.70
2018-07-10T00:21:42.455Z,64.40
2018-07-10T00:24:12.214Z,64.40
2018-07-10T00:26:41.964Z,64.00
2018-07-10T00:29:11.716Z,63.70
2018-07-10T00:31:41.455Z,63.50
2018-07-10T00:34:11.293Z,63.60
2018-07-10T00:36:41.103Z,62.90
2018-07-10T00:39:11.247Z,62.90
2018-07-10T00:41:41.923Z,63.20
2018-07-10T00:44:11.671Z,62.20
2018-07-10T00:46:41.816Z,63.30
2018-07-10T00:49:11.587Z,62.60
2018-07-10T00:51:41.959Z,62.20
2018-07-10T00:54:11.790Z,61.70
2018-07-10T00:59:10.949Z,62.70
2018-07-10T01:01:40.725Z,62.60
2018-07-10T01:04:10.542Z,61.30
2018-07-10T01:06:40.307Z,61.70
2018-07-10T01:09:14.485Z,62.50
2018-07-10T01:11:44.376Z,64.20
2018-07-10T01:14:14.247Z,64.30
2018-07-10T01:16:44.335Z,64.30
2018-07-10T01:19:15.971Z,63.90
2018-07-10T01:21:47.310Z,64.50
2018-07-10T01:24:19.094Z,63.80
2018-07-10T01:26:49.914Z,64.20
2018-07-10T01:29:25.348Z,64.20
2018-07-10T01:31:55.621Z,64.70
2018-07-10T01:34:25.483Z,64.50
2018-07-10T01:36:55.583Z,64.70
2018-07-10T01:39:25.339Z,64.30
2018-07-10T01:41:55.171Z,64.40
2018-07-10T01:44:25.043Z,65.10
2018-07-10T01:46:54.871Z,65.50
2018-07-10T01:49:24.991Z,65.80
2018-07-10T01:51:54.794Z,65.90
2018-07-10T01:54:24.936Z,66.00
2018-07-10T01:56:55.043Z,66.60
2018-07-10T01:59:24.896Z,66.30
2018-07-10T02:01:54.712Z,66.40
2018-07-10T02:04:25.163Z,66.50
2018-07-10T02:06:54.964Z,67.00
2018-07-10T02:09:24.777Z,66.70
2018-07-10T02:11:54.591Z,67.00
2018-07-10T02:14:24.359Z,67.60
2018-07-10T02:16:54.459Z,67.70
2018-07-10T02:19:24.250Z,68.00
2018-07-10T02:21:54.044Z,68.00
2018-07-10T02:24:26.011Z,68.50
2018-07-10T02:26:55.844Z,68.90
2018-07-10T02:29:25.669Z,69.00
2018-07-10T02:31:55.587Z,69.40
2018-07-10T02:34:25.323Z,69.50
2018-07-10T02:36:55.102Z,69.10
2018-07-10T02:39:24.883Z,69.40
2018-07-10T02:41:54.697Z,69.80
2018-07-10T02:44:24.521Z,70.30
2018-07-10T02:46:54.280Z,70.20
2018-07-10T02:49:24.067Z,70.10
2018-07-10T02:52:00.959Z,70.50
2018-07-10T02:54:34.108Z,70.40
2018-07-10T02:57:06.264Z,70.50
2018-07-10T02:59:40.164Z,70.60
2018-07-10T03:02:27.923Z,71.20
2018-07-10T03:05:05.689Z,72.10
2018-07-10T03:07:37.131Z,71.80
2018-07-10T03:10:06.919Z,71.10
2018-07-10T03:12:37.410Z,71.40
2018-07-10T03:15:09.544Z,71.00
2018-07-10T03:17:39.338Z,70.80
2018-07-10T03:20:09.563Z,70.60
2018-07-10T03:22:39.348Z,70.60
2018-07-10T03:25:10.466Z,71.00
2018-07-10T03:27:40.279Z,71.10
2018-07-10T03:30:10.091Z,70.90
2018-07-10T03:32:39.894Z,71.70
2018-07-10T03:35:09.710Z,70.70
2018-07-10T03:40:14.486Z,71.10
2018-07-10T03:42:44.292Z,71.30
2018-07-10T03:45:14.092Z,71.00
2018-07-10T03:47:43.935Z,71.20
2018-07-10T03:50:13.700Z,70.80
2018-07-10T03:52:44.155Z,71.10
2018-07-10T03:55:15.655Z,71.10
2018-07-10T03:57:45.471Z,71.00
2018-07-10T04:00:16.127Z,71.40
2018-07-10T04:02:49.343Z,70.70
2018-07-10T04:05:19.948Z,71.40
2018-07-10T04:07:57.094Z,71.50
2018-07-10T04:10:31.314Z,71.60
2018-07-10T04:13:09.455Z,71.70
2018-07-10T04:15:39.566Z,71.60
2018-07-10T04:18:14.768Z,71.40
2018-07-10T04:20:54.789Z,70.90
2018-07-10T04:23:27.522Z,71.00
2018-07-10T04:25:58.131Z,71.20
2018-07-10T04:28:34.364Z,71.20
2018-07-10T04:31:15.688Z,71.40
2018-07-10T04:33:48.382Z,71.30
2018-07-10T04:36:18.895Z,71.10
2018-07-10T04:38:57.436Z,71.10
2018-07-10T04:41:31.009Z,71.00
2018-07-10T04:44:09.771Z,71.20
2018-07-10T04:46:43.912Z,71.30
2018-07-10T04:49:24.956Z,71.50
2018-07-10T04:52:00.929Z,71.30
2018-07-10T04:54:39.324Z,71.50
2018-07-10T04:57:25.007Z,70.90
2018-07-10T04:59:54.811Z,70.80
2018-07-10T05:02:25.282Z,70.20
2018-07-10T05:04:55.054Z,71.10
2018-07-10T05:07:24.892Z,71.10
2018-07-10T05:09:55.270Z,71.00
2018-07-10T05:12:25.079Z,70.90
2018-07-10T05:17:55.892Z,71.20
2018-07-10T05:20:26.510Z,70.80
2018-07-10T05:22:56.356Z,69.10
2018-07-10T05:25:26.311Z,67.20
2018-07-10T05:27:56.127Z,67.40
2018-07-10T05:32:55.226Z,69.50
2018-07-10T05:35:25.059Z,69.70
2018-07-10T05:37:54.860Z,70.20
2018-07-10T05:42:55.368Z,70.40
2018-07-10T05:45:30.642Z,70.50
2018-07-10T05:48:02.595Z,70.70
2018-07-10T05:50:36.703Z,70.80
2018-07-10T05:53:10.144Z,70.20
2018-07-10T05:55:45.057Z,70.20
2018-07-10T05:58:14.851Z,70.50
2018-07-10T06:00:45.296Z,69.90
2018-07-10T06:03:15.365Z,69.80
2018-07-10T06:05:45.191Z,68.60
2018-07-10T06:08:14.970Z,69.50
2018-07-10T06:10:44.734Z,68.40
2018-07-10T06:13:14.937Z,69.70
2018-07-10T06:15:44.712Z,69.40
2018-07-10T06:18:14.584Z,68.80
2018-07-10T06:20:44.356Z,70.10
2018-07-10T06:23:14.123Z,68.30
2018-07-10T06:25:43.918Z,69.10
2018-07-10T06:28:16.475Z,69.40
2018-07-10T06:30:46.256Z,68.10
2018-07-10T06:33:28.102Z,67.70
2018-07-10T06:36:29.955Z,66.80
2018-07-10T06:39:11.844Z,67.60
2018-07-10T06:41:50.879Z,68.60
2018-07-10T06:44:21.290Z,68.80
2018-07-10T06:46:55.588Z,69.40
2018-07-10T06:49:29.106Z,69.40
2018-07-10T06:52:11.032Z,68.40
2018-07-10T06:54:44.147Z,69.40
2018-07-10T06:57:14.207Z,68.30
2018-07-10T06:59:44.067Z,67.80
2018-07-10T07:02:13.889Z,68.30
2018-07-10T07:04:43.683Z,68.40
2018-07-10T07:07:13.494Z,68.30
2018-07-10T07:09:43.256Z,67.30
2018-07-10T07:12:13.697Z,65.90
2018-07-10T07:14:43.794Z,65.40
2018-07-10T07:17:14.123Z,65.80
2018-07-10T07:19:44.498Z,66.10
2018-07-10T07:22:14.795Z,65.10
2018-07-10T07:24:45.216Z,65.30
2018-07-10T07:27:14.995Z,66.50
2018-07-10T07:29:44.953Z,65.80
2018-07-10T07:32:15.024Z,66.10
2018-07-10T07:34:44.903Z,66.00
2018-07-10T07:37:14.754Z,64.80
2018-07-10T07:39:45.463Z,64.90
2018-07-10T07:42:16.552Z,65.00
2018-07-10T07:44:47.707Z,64.80
2018-07-10T07:47:18.684Z,65.40
2018-07-10T07:49:48.667Z,64.60
2018-07-10T07:52:18.435Z,64.40
2018-07-10T07:54:48.252Z,64.70
2018-07-10T07:57:18.459Z,65.40
2018-07-10T07:59:49.320Z,64.80
2018-07-10T08:02:19.122Z,63.10
2018-07-10T08:04:49.131Z,63.70
2018-07-10T08:07:19.721Z,63.20
2018-07-10T08:09:50.278Z,62.70
2018-07-10T08:12:20.250Z,62.50
2018-07-10T08:14:50.375Z,63.50
2018-07-10T08:17:21.700Z,61.00
2018-07-10T08:19:51.515Z,59.70
2018-07-10T08:22:21.391Z,59.40
2018-07-10T08:24:52.336Z,61.00
2018-07-10T08:27:23.016Z,60.70
2018-07-10T08:32:22.267Z,61.90
2018-07-10T08:34:52.067Z,62.10
2018-07-10T08:37:21.916Z,63.30
2018-07-10T08:39:51.743Z,64.00
2018-07-10T08:42:21.572Z,66.60
2018-07-10T08:44:51.686Z,68.80
2018-07-10T08:47:23.014Z,69.10
2018-07-10T08:49:52.919Z,71.20
2018-07-10T08:52:22.895Z,72.10
2018-07-10T08:54:52.708Z,72.90
2018-07-10T08:57:22.811Z,73.80
2018-07-10T08:59:53.477Z,75.50
2018-07-10T09:02:23.840Z,74.30
2018-07-10T09:04:53.715Z,74.40
2018-07-10T09:07:23.512Z,75.20
2018-07-10T09:09:53.570Z,74.50
2018-07-10T09:12:23.383Z,75.00
2018-07-10T09:14:53.169Z,73.90
2018-07-10T09:17:23.033Z,73.40
2018-07-10T09:19:52.811Z,73.70
2018-07-10T09:22:22.582Z,73.70
2018-07-10T09:24:55.964Z,72.80
2018-07-10T09:27:25.895Z,72.90
2018-07-10T09:29:55.755Z,71.60
2018-07-10T09:32:30.909Z,72.30
2018-07-10T09:35:00.772Z,70.20
2018-07-10T09:37:36.991Z,70.70
2018-07-10T09:40:12.354Z,70.30
2018-07-10T09:42:47.072Z,70.30
2018-07-10T09:45:24.826Z,70.00
2018-07-10T09:47:56.085Z,68.30
2018-07-10T09:50:26.114Z,65.90
2018-07-10T09:52:55.960Z,66.30
2018-07-10T09:55:25.748Z,66.00
2018-07-10T09:57:56.712Z,64.00
2018-07-10T10:03:01.276Z,65.70
2018-07-10T10:05:37.422Z,64.60
2018-07-10T10:08:07.243Z,62.60
2018-07-10T10:10:37.264Z,63.50
2018-07-10T10:13:07.080Z,64.70
2018-07-10T10:15:37.487Z,64.30
2018-07-10T10:18:08.855Z,64.30
2018-07-10T10:20:40.405Z,62.40
2018-07-10T10:23:11.691Z,63.00
2018-07-10T10:25:49.754Z,62.30
2018-07-10T10:28:23.696Z,63.60
2018-07-10T10:30:53.527Z,62.50
2018-07-10T10:33:23.366Z,63.50
2018-07-10T10:35:53.147Z,66.30
2018-07-10T10:38:23.432Z,69.50
2018-07-10T10:40:53.779Z,72.00
2018-07-10T10:43:23.655Z,72.80
2018-07-10T10:45:56.353Z,73.80
2018-07-10T10:48:26.203Z,74.70
2018-07-10T10:50:56.016Z,75.50
2018-07-10T10:53:25.897Z,75.10
2018-07-10T10:55:55.676Z,75.50
2018-07-10T10:58:25.542Z,74.90
2018-07-10T11:00:55.408Z,74.40
2018-07-10T11:03:29.948Z,75.10
2018-07-10T11:05:59.810Z,75.60
2018-07-10T11:08:29.670Z,77.50
2018-07-10T11:10:59.510Z,76.60
2018-07-10T11:13:29.357Z,76.10
2018-07-10T11:15:59.335Z,76.10
2018-07-10T11:18:40.046Z,75.90
2018-07-10T11:22:18.037Z,74.80
2018-07-10T11:25:11.016Z,76.80
2018-07-10T11:28:13.815Z,75.20
2018-07-10T11:30:43.972Z,74.70
2018-07-10T11:33:14.069Z,75.60
2018-07-10T11:35:44.129Z,74.50
2018-07-10T11:38:14.393Z,74.10
2018-07-10T11:40:45.611Z,75.50
2018-07-10T11:43:22.189Z,76.30
2018-07-10T11:45:57.936Z,78.10
2018-07-10T11:48:27.879Z,77.00
2018-07-10T11:50:57.680Z,77.20
2018-07-10T11:53:27.484Z,76.70
2018-07-10T11:56:17.317Z,76.60
2018-07-10T11:58:47.182Z,78.60
2018-07-10T12:01:17.220Z,76.80
2018-07-10T12:03:47.512Z,75.90
2018-07-10T12:06:17.511Z,75.30
2018-07-10T12:08:53.476Z,75.10
2018-07-10T12:11:28.823Z,75.10
2018-07-10T12:13:58.876Z,75.60
2018-07-10T12:16:28.957Z,75.70
2018-07-10T12:18:58.889Z,75.80
2018-07-10T12:21:28.792Z,74.80
2018-07-10T12:23:58.697Z,75.30
2018-07-10T12:26:28.574Z,76.80
2018-07-10T12:28:58.596Z,76.30
2018-07-10T12:31:28.987Z,76.30
2018-07-10T12:33:59.133Z,75.50
2018-07-10T12:36:29.469Z,73.80
2018-07-10T12:39:02.053Z,74.00
2018-07-10T12:41:33.614Z,73.80
2018-07-10T12:44:03.797Z,74.40
2018-07-10T12:46:33.936Z,74.40
2018-07-10T12:49:03.787Z,74.70
2018-07-10T12:51:33.660Z,76.20
2018-07-10T12:54:03.534Z,75.40
2018-07-10T12:56:33.757Z,76.10
2018-07-10T12:59:03.623Z,76.70
2018-07-10T13:01:33.511Z,76.30
2018-07-10T13:04:03.391Z,75.10
2018-07-10T13:06:33.259Z,75.50
2018-07-10T13:09:03.143Z,74.80
2018-07-10T13:11:32.936Z,73.10
2018-07-10T13:14:02.713Z,73.00
2018-07-10T13:19:35.475Z,72.70
2018-07-10T13:22:05.353Z,72.00
2018-07-10T13:24:35.348Z,70.70
2018-07-10T13:27:05.260Z,72.40
2018-07-10T13:29:35.252Z,70.30
2018-07-10T13:32:05.149Z,71.10
2018-07-10T13:34:35.033Z,72.90
2018-07-10T13:45:40.939Z,69.50
2018-07-10T13:48:10.775Z,68.20
2018-07-10T13:50:40.547Z,69.30
2018-07-10T13:53:10.365Z,68.40
2018-07-10T13:55:40.199Z,67.30
2018-07-10T13:58:18.572Z,68.30
2018-07-10T14:00:52.051Z,67.30
2018-07-10T14:03:21.882Z,66.50
2018-07-10T14:05:51.698Z,65.80
2018-07-10T14:14:32.536Z,61.20
2018-07-10T14:17:02.373Z,63.10
2018-07-10T14:19:32.262Z,63.30
2018-07-10T14:22:06.045Z,61.60
2018-07-10T14:24:36.162Z,61.70
2018-07-10T14:27:07.439Z,62.60
2018-07-10T14:29:37.245Z,60.20
2018-07-10T14:32:07.155Z,60.80
2018-07-10T14:34:40.041Z,59.30
2018-07-10T14:37:10.434Z,59.10
2018-07-10T14:39:40.615Z,58.50
2018-07-10T14:42:12.050Z,59.10
2018-07-10T14:44:44.507Z,57.80
2018-07-10T14:47:14.784Z,58.30
2018-07-10T14:49:45.348Z,57.80
2018-07-10T14:54:45.105Z,57.20
2018-07-10T14:57:14.891Z,57.60
2018-07-10T14:59:45.914Z,56.50
2018-07-10T15:02:15.833Z,56.20
2018-07-10T15:04:45.639Z,54.50
2018-07-10T15:07:15.472Z,54.40
2018-07-10T15:09:45.304Z,54.70
2018-07-10T15:12:15.075Z,55.50
2018-07-10T15:14:44.930Z,54.00
2018-07-10T15:17:20.188Z,53.70
2018-07-10T15:19:50.017Z,54.60
2018-07-10T15:22:19.780Z,52.60
2018-07-10T15:24:49.609Z,52.10
2018-07-10T15:27:19.819Z,54.40
2018-07-10T15:32:55.151Z,53.10
2018-07-10T15:35:25.492Z,54.30
2018-07-10T15:37:55.363Z,53.40
2018-07-10T15:40:25.185Z,53.60
2018-07-10T15:42:55.055Z,52.00
2018-07-10T15:45:30.527Z,52.40
2018-07-10T15:48:00.334Z,53.40
2018-07-10T15:50:30.183Z,52.80
2018-07-10T15:53:00.088Z,51.20
2018-07-10T15:55:29.932Z,50.90
2018-07-10T15:57:59.852Z,52.00
2018-07-10T16:00:29.725Z,51.00
2018-07-10T16:02:59.598Z,51.50
2018-07-10T16:05:29.772Z,51.60
2018-07-10T16:08:08.567Z,51.30
2018-07-10T16:10:38.505Z,50.90
2018-07-10T16:13:08.388Z,51.00
2018-07-10T16:15:38.234Z,50.80
2018-07-10T16:18:08.094Z,51.50
2018-07-10T16:20:40.596Z,50.20
2018-07-10T16:23:11.283Z,50.40
2018-07-10T16:25:43.187Z,49.80
2018-07-10T16:28:20.288Z,49.30
2018-07-10T16:30:50.703Z,49.80
2018-07-10T16:33:26.788Z,49.80
2018-07-10T16:35:56.720Z,50.50
2018-07-10T16:38:26.547Z,50.70
2018-07-10T16:41:01.604Z,49.90
2018-07-10T16:43:31.431Z,49.50
2018-07-10T16:46:02.304Z,50.10
2018-07-10T16:48:43.035Z,49.90
2018-07-10T16:51:26.850Z,49.80
2018-07-10T16:53:57.880Z,49.60
2018-07-10T16:56:27.771Z,50.10
2018-07-10T16:58:57.966Z,50.10
2018-07-10T17:01:28.363Z,49.50
2018-07-10T17:03:58.678Z,50.10
2018-07-10T17:06:28.492Z,49.40
2018-07-10T17:08:58.595Z,50.00
2018-07-10T17:11:28.472Z,49.90
2018-07-10T17:13:58.299Z,50.10
2018-07-10T17:16:29.601Z,50.00
2018-07-10T17:19:01.373Z,50.10
2018-07-10T17:21:32.820Z,50.40
2018-07-10T17:24:06.906Z,51.20
2018-07-10T17:26:44.854Z,49.90
2018-07-10T17:29:16.120Z,50.30
2018-07-10T17:31:55.728Z,49.80
2018-07-10T17:34:25.821Z,50.40
2018-07-10T17:36:55.699Z,49.60
2018-07-10T17:39:26.983Z,49.70
2018-07-10T17:41:56.840Z,50.60
2018-07-10T17:44:27.687Z,49.80
2018-07-10T17:46:58.411Z,50.50
2018-07-10T17:49:30.846Z,49.80
2018-07-10T17:52:02.884Z,49.60
2018-07-10T17:54:33.033Z,49.20
2018-07-10T17:57:03.945Z,50.00
2018-07-10T17:59:33.951Z,49.70
2018-07-10T18:02:04.031Z,50.80
2018-07-10T18:04:34.726Z,50.00
2018-07-10T18:07:04.744Z,50.10
2018-07-10T18:09:37.924Z,51.20
2018-07-10T18:12:09.236Z,50.00
2018-07-10T18:14:44.585Z,50.10
2018-07-10T18:17:14.999Z,50.30
2018-07-10T18:19:45.524Z,50.60
2018-07-10T18:22:15.667Z,50.10
2018-07-10T18:24:45.435Z,50.60
2018-07-10T18:27:15.276Z,50.00
2018-07-10T18:29:45.063Z,51.00
2018-07-10T18:32:14.919Z,50.50
2018-07-10T18:34:44.710Z,50.60
2018-07-10T18:37:15.848Z,50.70
2018-07-10T18:39:45.715Z,50.70
2018-07-10T18:42:16.069Z,52.00
2018-07-10T18:44:45.984Z,51.70
2018-07-10T18:47:21.129Z,50.90
2018-07-10T18:49:55.457Z,51.90
2018-07-10T18:52:27.763Z,51.70
2018-07-10T18:54:59.456Z,51.80
2018-07-10T18:57:51.098Z,52.00
2018-07-10T19:00:34.731Z,53.00
2018-07-10T19:03:07.762Z,53.70
2018-07-10T19:05:49.885Z,54.40
2018-07-10T19:08:23.119Z,55.10
2018-07-10T19:10:55.267Z,55.00
2018-07-10T19:16:01.402Z,56.60
2018-07-10T19:18:31.316Z,56.40
2018-07-10T19:22:06.021Z,56.10
2018-07-10T19:24:37.013Z,56.90
2018-07-10T19:27:09.200Z,58.10
2018-07-10T19:29:48.131Z,58.70
2018-07-10T19:32:18.287Z,58.30
2018-07-10T19:34:54.191Z,58.60
2018-07-10T19:37:26.143Z,58.60
2018-07-10T19:39:56.828Z,58.80
2018-07-10T19:42:31.980Z,59.50
2018-07-10T19:45:08.387Z,60.40
2018-07-10T19:47:38.849Z,60.00
2018-07-10T19:50:15.131Z,60.90
2018-07-10T19:52:54.801Z,61.00
2018-07-10T19:55:26.627Z,60.60
2018-07-10T19:58:09.771Z,60.50
2018-07-10T20:00:51.682Z,61.40
2018-07-10T20:03:32.451Z,61.10
2018-07-10T20:06:09.610Z,61.20
2018-07-10T20:08:44.554Z,60.60
2018-07-10T20:11:19.035Z,61.40
2018-07-10T20:13:49.835Z,62.20
2018-07-10T20:16:32.257Z,61.60
2018-07-10T20:20:13.177Z,62.30
2018-07-10T20:23:10.555Z,63.00
2018-07-10T20:27:54.724Z,62.30
2018-07-10T20:32:36.614Z,62.30
2018-07-10T20:35:14.495Z,63.00
2018-07-10T20:37:46.995Z,63.40
2018-07-10T20:40:30.739Z,63.80
2018-07-10T20:43:08.064Z,63.80
2018-07-10T20:45:47.171Z,64.10
2018-07-10T20:48:36.297Z,64.10
2018-07-10T20:51:08.492Z,64.30
2018-07-10T20:53:50.372Z,64.90
2018-07-10T20:56:32.675Z,65.30
2018-07-10T20:59:13.991Z,65.10
2018-07-10T21:01:45.406Z,65.30
2018-07-10T21:04:21.606Z,65.60
2018-07-10T21:06:58.690Z,66.00
2018-07-10T21:09:40.881Z,65.50
2018-07-10T21:12:15.702Z,65.10
2018-07-10T21:14:50.900Z,65.20
2018-07-10T21:17:26.831Z,65.60
2018-07-10T21:20:03.441Z,66.20
2018-07-10T21:22:43.366Z,65.90
2018-07-10T21:25:28.286Z,66.00
2018-07-10T21:28:16.815Z,65.60
2018-07-10T21:30:55.209Z,66.00
2018-07-10T21:33:37.943Z,65.70
2018-07-10T21:36:14.003Z,64.80
2018-07-10T21:38:54.429Z,65.50
2018-07-10T21:41:35.619Z,65.50
2018-07-10T21:47:51.200Z,65.20
2018-07-10T21:50:26.364Z,65.90
2018-07-10T21:52:56.139Z,66.20
2018-07-10T21:55:25.943Z,66.50
2018-07-10T21:57:55.739Z,66.30
2018-07-10T22:00:36.922Z,67.00
2018-07-10T22:03:06.727Z,67.00
2018-07-10T22:05:36.526Z,66.80
2018-07-10T22:08:06.291Z,67.70
2018-07-10T22:10:36.131Z,68.00
2018-07-10T22:13:06.011Z,68.50
2018-07-10T22:15:35.783Z,68.40
2018-07-10T22:18:05.631Z,69.20
2018-07-10T22:20:35.468Z,69.10
2018-07-10T22:23:05.412Z,68.70
2018-07-10T22:25:35.218Z,68.60
2018-07-10T22:28:05.052Z,69.30
2018-07-10T22:31:41.656Z,69.60
2018-07-10T22:34:11.523Z,70.40
2018-07-10T22:36:41.384Z,70.10
2018-07-10T22:39:11.183Z,70.10
2018-07-10T22:41:41.031Z,70.10
2018-07-10T22:44:10.850Z,70.00
2018-07-10T22:46:41.102Z,70.20
2018-07-10T22:49:12.556Z,70.20
2018-07-10T22:51:42.698Z,70.60
2018-07-10T22:54:12.539Z,71.20
2018-07-10T22:56:42.359Z,71.30
2018-07-10T22:59:12.195Z,72.00
2018-07-10T23:01:41.929Z,70.80
2018-07-10T23:04:11.727Z,71.20
2018-07-10T23:06:41.552Z,70.80
2018-07-10T23:09:11.339Z,70.40
2018-07-10T23:11:41.087Z,70.00
2018-07-10T23:14:11.094Z,69.30
2018-07-10T23:16:41.273Z,69.60
2018-07-10T23:19:11.079Z,70.00
2018-07-10T23:21:41.797Z,70.30
2018-07-10T23:24:11.781Z,70.10
2018-07-10T23:26:42.763Z,69.40
2018-07-10T23:29:12.558Z,69.00
2018-07-10T23:31:44.450Z,69.40
2018-07-10T23:34:18.151Z,69.80
2018-07-10T23:36:55.427Z,69.40
2018-07-10T23:39:26.508Z,69.50
2018-07-10T23:42:02.028Z,71.00
2018-07-10T23:44:34.024Z,71.50
2018-07-10T23:47:12.895Z,70.60
2018-07-10T23:49:42.727Z,71.60
2018-07-10T23:52:23.520Z,72.10
2018-07-10T23:54:53.288Z,71.40
2018-07-10T23:57:23.067Z,72.10
2018-07-10T23:59:52.885Z,72.50
